sensor_id;sensor_type;location;lat;lon;timestamp;temperature;humidity
56172;DHT22;42052;41.634;-0.946;2024-01-30T00:02:00;20.60;46.30
56172;DHT22;42052;41.634;-0.946;2024-01-30T00:04:26;20.60;46.30
56172;DHT22;42052;41.634;-0.946;2024-01-30T00:06:52;20.60;46.30
56172;DHT22;42052;41.634;-0.946;2024-01-30T00:09:20;20.60;46.30
56172;DHT22;42052;41.634;-0.946;2024-01-30T00:11:46;20.60;46.30
56172;DHT22;42052;41.634;-0.946;2024-01-30T00:14:12;20.50;46.20
56172;DHT22;42052;41.634;-0.946;2024-01-30T00:16:38;20.60;46.40
56172;DHT22;42052;41.634;-0.946;2024-01-30T00:19:05;20.60;46.50
56172;DHT22;42052;41.634;-0.946;2024-01-30T00:21:31;20.50;46.30
56172;DHT22;42052;41.634;-0.946;2024-01-30T00:23:57;20.50;46.30
56172;DHT22;42052;41.634;-0.946;2024-01-30T00:26:23;20.60;46.40
56172;DHT22;42052;41.634;-0.946;2024-01-30T00:28:49;20.60;46.50
56172;DHT22;42052;41.634;-0.946;2024-01-30T00:31:15;20.50;46.40
56172;DHT22;42052;41.634;-0.946;2024-01-30T00:33:41;20.50;46.40
56172;DHT22;42052;41.634;-0.946;2024-01-30T00:36:08;20.50;46.50
56172;DHT22;42052;41.634;-0.946;2024-01-30T00:38:35;20.50;46.50
56172;DHT22;42052;41.634;-0.946;2024-01-30T00:41:01;20.50;46.60
56172;DHT22;42052;41.634;-0.946;2024-01-30T00:43:30;20.50;46.50
56172;DHT22;42052;41.634;-0.946;2024-01-30T00:45:57;20.50;46.50
56172;DHT22;42052;41.634;-0.946;2024-01-30T00:48:23;20.50;46.60
56172;DHT22;42052;41.634;-0.946;2024-01-30T00:50:49;20.50;46.50
56172;DHT22;42052;41.634;-0.946;2024-01-30T00:53:15;20.50;46.60
56172;DHT22;42052;41.634;-0.946;2024-01-30T00:55:41;20.50;46.60
56172;DHT22;42052;41.634;-0.946;2024-01-30T00:58:07;20.50;46.70
56172;DHT22;42052;41.634;-0.946;2024-01-30T01:00:33;20.50;46.70
56172;DHT22;42052;41.634;-0.946;2024-01-30T01:02:59;20.50;46.70
56172;DHT22;42052;41.634;-0.946;2024-01-30T01:05:30;20.50;46.70
56172;DHT22;42052;41.634;-0.946;2024-01-30T01:07:56;20.40;46.60
56172;DHT22;42052;41.634;-0.946;2024-01-30T01:10:21;20.40;46.70
56172;DHT22;42052;41.634;-0.946;2024-01-30T01:12:48;20.40;46.90
56172;DHT22;42052;41.634;-0.946;2024-01-30T01:15:14;20.40;47.00
56172;DHT22;42052;41.634;-0.946;2024-01-30T01:17:40;20.40;47.00
56172;DHT22;42052;41.634;-0.946;2024-01-30T01:20:07;20.40;47.10
56172;DHT22;42052;41.634;-0.946;2024-01-30T01:22:34;20.40;47.00
56172;DHT22;42052;41.634;-0.946;2024-01-30T01:25:01;20.40;47.00
56172;DHT22;42052;41.634;-0.946;2024-01-30T01:27:27;20.40;47.00
56172;DHT22;42052;41.634;-0.946;2024-01-30T01:29:53;20.40;47.00
56172;DHT22;42052;41.634;-0.946;2024-01-30T01:32:19;20.40;46.90
56172;DHT22;42052;41.634;-0.946;2024-01-30T01:34:45;20.40;46.90
56172;DHT22;42052;41.634;-0.946;2024-01-30T01:37:11;20.40;47.00
56172;DHT22;42052;41.634;-0.946;2024-01-30T01:39:37;20.40;47.00
56172;DHT22;42052;41.634;-0.946;2024-01-30T01:42:03;20.40;47.00
56172;DHT22;42052;41.634;-0.946;2024-01-30T01:44:29;20.40;47.00
56172;DHT22;42052;41.634;-0.946;2024-01-30T01:46:55;20.40;47.00
56172;DHT22;42052;41.634;-0.946;2024-01-30T01:49:24;20.30;46.90
56172;DHT22;42052;41.634;-0.946;2024-01-30T01:51:51;20.40;47.80
56172;DHT22;42052;41.634;-0.946;2024-01-30T01:54:19;20.40;47.00
56172;DHT22;42052;41.634;-0.946;2024-01-30T01:56:45;20.40;47.10
56172;DHT22;42052;41.634;-0.946;2024-01-30T01:59:11;20.30;47.10
56172;DHT22;42052;41.634;-0.946;2024-01-30T02:01:37;20.30;47.20
56172;DHT22;42052;41.634;-0.946;2024-01-30T02:04:09;20.30;47.10
56172;DHT22;42052;41.634;-0.946;2024-01-30T02:06:35;20.30;47.10
56172;DHT22;42052;41.634;-0.946;2024-01-30T02:09:01;20.30;47.10
56172;DHT22;42052;41.634;-0.946;2024-01-30T02:11:27;20.30;47.20
56172;DHT22;42052;41.634;-0.946;2024-01-30T02:13:53;20.30;47.20
56172;DHT22;42052;41.634;-0.946;2024-01-30T02:16:19;20.30;47.20
56172;DHT22;42052;41.634;-0.946;2024-01-30T02:18:45;20.30;47.20
56172;DHT22;42052;41.634;-0.946;2024-01-30T02:21:16;20.30;47.20
56172;DHT22;42052;41.634;-0.946;2024-01-30T02:23:44;20.30;47.20
56172;DHT22;42052;41.634;-0.946;2024-01-30T02:26:14;20.30;47.20
56172;DHT22;42052;41.634;-0.946;2024-01-30T02:28:40;20.30;47.20
56172;DHT22;42052;41.634;-0.946;2024-01-30T02:31:05;20.20;47.10
56172;DHT22;42052;41.634;-0.946;2024-01-30T02:33:31;20.30;47.20
56172;DHT22;42052;41.634;-0.946;2024-01-30T02:35:57;20.30;47.30
56172;DHT22;42052;41.634;-0.946;2024-01-30T02:38:24;20.20;47.20
56172;DHT22;42052;41.634;-0.946;2024-01-30T02:40:50;20.20;47.30
56172;DHT22;42052;41.634;-0.946;2024-01-30T02:43:16;20.20;47.30
56172;DHT22;42052;41.634;-0.946;2024-01-30T02:45:42;20.20;47.20
56172;DHT22;42052;41.634;-0.946;2024-01-30T02:48:08;20.20;47.30
56172;DHT22;42052;41.634;-0.946;2024-01-30T02:50:34;20.20;47.30
56172;DHT22;42052;41.634;-0.946;2024-01-30T02:53:00;20.20;47.20
56172;DHT22;42052;41.634;-0.946;2024-01-30T02:55:26;20.30;48.30
56172;DHT22;42052;41.634;-0.946;2024-01-30T02:57:52;20.20;47.40
56172;DHT22;42052;41.634;-0.946;2024-01-30T03:00:19;20.30;47.40
56172;DHT22;42052;41.634;-0.946;2024-01-30T03:02:45;20.40;47.40
56172;DHT22;42052;41.634;-0.946;2024-01-30T03:05:11;20.40;47.40
56172;DHT22;42052;41.634;-0.946;2024-01-30T03:07:37;20.40;47.30
56172;DHT22;42052;41.634;-0.946;2024-01-30T03:10:04;20.40;47.30
56172;DHT22;42052;41.634;-0.946;2024-01-30T03:12:32;20.40;47.30
56172;DHT22;42052;41.634;-0.946;2024-01-30T03:14:58;20.40;47.30
56172;DHT22;42052;41.634;-0.946;2024-01-30T03:17:24;20.40;47.20
56172;DHT22;42052;41.634;-0.946;2024-01-30T03:19:51;20.40;47.20
56172;DHT22;42052;41.634;-0.946;2024-01-30T03:22:17;20.50;47.20
56172;DHT22;42052;41.634;-0.946;2024-01-30T03:24:43;20.50;47.30
56172;DHT22;42052;41.634;-0.946;2024-01-30T03:27:10;20.50;47.30
56172;DHT22;42052;41.634;-0.946;2024-01-30T03:29:37;20.50;47.20
56172;DHT22;42052;41.634;-0.946;2024-01-30T03:32:02;20.50;47.20
56172;DHT22;42052;41.634;-0.946;2024-01-30T03:34:29;20.60;47.20
56172;DHT22;42052;41.634;-0.946;2024-01-30T03:36:55;20.50;47.20
56172;DHT22;42052;41.634;-0.946;2024-01-30T03:39:21;20.50;47.20
56172;DHT22;42052;41.634;-0.946;2024-01-30T03:41:47;20.50;48.00
56172;DHT22;42052;41.634;-0.946;2024-01-30T03:44:12;20.50;47.20
56172;DHT22;42052;41.634;-0.946;2024-01-30T03:46:39;20.60;47.30
56172;DHT22;42052;41.634;-0.946;2024-01-30T03:49:04;20.50;47.30
56172;DHT22;42052;41.634;-0.946;2024-01-30T03:51:30;20.50;47.20
56172;DHT22;42052;41.634;-0.946;2024-01-30T03:53:56;20.60;47.30
56172;DHT22;42052;41.634;-0.946;2024-01-30T03:56:22;20.50;47.20
56172;DHT22;42052;41.634;-0.946;2024-01-30T03:58:48;20.60;47.20
56172;DHT22;42052;41.634;-0.946;2024-01-30T04:01:14;20.60;47.10
56172;DHT22;42052;41.634;-0.946;2024-01-30T04:03:40;20.60;47.10
56172;DHT22;42052;41.634;-0.946;2024-01-30T04:06:07;20.60;47.20
56172;DHT22;42052;41.634;-0.946;2024-01-30T04:08:33;20.60;47.20
56172;DHT22;42052;41.634;-0.946;2024-01-30T04:10:59;20.60;47.20
56172;DHT22;42052;41.634;-0.946;2024-01-30T04:13:28;20.60;47.20
56172;DHT22;42052;41.634;-0.946;2024-01-30T04:15:54;20.70;47.20
56172;DHT22;42052;41.634;-0.946;2024-01-30T04:18:20;20.70;47.20
56172;DHT22;42052;41.634;-0.946;2024-01-30T04:20:46;20.60;47.10
56172;DHT22;42052;41.634;-0.946;2024-01-30T04:23:12;20.70;47.20
56172;DHT22;42052;41.634;-0.946;2024-01-30T04:25:38;20.70;47.30
56172;DHT22;42052;41.634;-0.946;2024-01-30T04:28:04;20.70;47.40
56172;DHT22;42052;41.634;-0.946;2024-01-30T04:30:30;20.70;47.30
56172;DHT22;42052;41.634;-0.946;2024-01-30T04:32:56;20.70;47.30
56172;DHT22;42052;41.634;-0.946;2024-01-30T04:35:21;20.70;47.20
56172;DHT22;42052;41.634;-0.946;2024-01-30T04:37:51;20.70;47.10
56172;DHT22;42052;41.634;-0.946;2024-01-30T04:40:21;20.70;47.60
56172;DHT22;42052;41.634;-0.946;2024-01-30T04:42:47;20.70;47.10
56172;DHT22;42052;41.634;-0.946;2024-01-30T04:45:13;20.70;47.20
56172;DHT22;42052;41.634;-0.946;2024-01-30T04:47:38;20.60;47.10
56172;DHT22;42052;41.634;-0.946;2024-01-30T04:50:06;20.70;47.10
56172;DHT22;42052;41.634;-0.946;2024-01-30T04:52:32;20.60;47.00
56172;DHT22;42052;41.634;-0.946;2024-01-30T04:54:58;20.70;47.00
56172;DHT22;42052;41.634;-0.946;2024-01-30T04:57:24;20.70;47.00
56172;DHT22;42052;41.634;-0.946;2024-01-30T04:59:50;20.70;46.90
56172;DHT22;42052;41.634;-0.946;2024-01-30T05:02:16;20.60;46.70
56172;DHT22;42052;41.634;-0.946;2024-01-30T05:04:42;20.70;47.00
56172;DHT22;42052;41.634;-0.946;2024-01-30T05:07:07;20.70;47.00
56172;DHT22;42052;41.634;-0.946;2024-01-30T05:09:33;20.70;47.00
56172;DHT22;42052;41.634;-0.946;2024-01-30T05:11:59;20.70;47.10
56172;DHT22;42052;41.634;-0.946;2024-01-30T05:14:25;20.70;47.10
56172;DHT22;42052;41.634;-0.946;2024-01-30T05:16:51;20.70;47.00
56172;DHT22;42052;41.634;-0.946;2024-01-30T05:19:17;20.70;47.00
56172;DHT22;42052;41.634;-0.946;2024-01-30T05:21:43;20.80;47.00
56172;DHT22;42052;41.634;-0.946;2024-01-30T05:24:09;20.70;46.90
56172;DHT22;42052;41.634;-0.946;2024-01-30T05:26:36;20.70;46.90
56172;DHT22;42052;41.634;-0.946;2024-01-30T05:29:02;20.70;46.90
56172;DHT22;42052;41.634;-0.946;2024-01-30T05:31:28;20.70;47.00
56172;DHT22;42052;41.634;-0.946;2024-01-30T05:33:54;20.70;47.00
56172;DHT22;42052;41.634;-0.946;2024-01-30T05:36:20;20.70;47.00
56172;DHT22;42052;41.634;-0.946;2024-01-30T05:38:47;20.70;47.00
56172;DHT22;42052;41.634;-0.946;2024-01-30T05:41:13;20.70;47.00
56172;DHT22;42052;41.634;-0.946;2024-01-30T05:43:39;20.70;47.10
56172;DHT22;42052;41.634;-0.946;2024-01-30T05:46:04;20.70;47.10
56172;DHT22;42052;41.634;-0.946;2024-01-30T05:48:31;20.70;47.10
56172;DHT22;42052;41.634;-0.946;2024-01-30T05:50:58;20.70;47.20
56172;DHT22;42052;41.634;-0.946;2024-01-30T05:53:25;20.70;47.10
56172;DHT22;42052;41.634;-0.946;2024-01-30T05:55:51;20.70;47.10
56172;DHT22;42052;41.634;-0.946;2024-01-30T05:58:18;20.70;47.10
56172;DHT22;42052;41.634;-0.946;2024-01-30T06:00:44;20.70;47.10
56172;DHT22;42052;41.634;-0.946;2024-01-30T06:03:10;20.70;47.00
56172;DHT22;42052;41.634;-0.946;2024-01-30T06:05:36;20.70;47.00
56172;DHT22;42052;41.634;-0.946;2024-01-30T06:08:02;20.70;47.00
56172;DHT22;42052;41.634;-0.946;2024-01-30T06:10:31;20.70;47.00
56172;DHT22;42052;41.634;-0.946;2024-01-30T06:12:56;20.70;47.10
56172;DHT22;42052;41.634;-0.946;2024-01-30T06:15:25;20.70;47.00
56172;DHT22;42052;41.634;-0.946;2024-01-30T06:17:51;20.70;46.90
56172;DHT22;42052;41.634;-0.946;2024-01-30T06:20:17;20.80;47.00
56172;DHT22;42052;41.634;-0.946;2024-01-30T06:22:43;20.70;46.90
56172;DHT22;42052;41.634;-0.946;2024-01-30T06:25:09;20.70;47.20
56172;DHT22;42052;41.634;-0.946;2024-01-30T06:27:35;20.80;47.60
56172;DHT22;42052;41.634;-0.946;2024-01-30T06:30:01;20.80;47.80
56172;DHT22;42052;41.634;-0.946;2024-01-30T06:32:27;20.80;48.00
56172;DHT22;42052;41.634;-0.946;2024-01-30T06:34:54;20.80;48.50
56172;DHT22;42052;41.634;-0.946;2024-01-30T06:37:21;20.90;48.90
56172;DHT22;42052;41.634;-0.946;2024-01-30T06:39:47;20.90;49.60
56172;DHT22;42052;41.634;-0.946;2024-01-30T06:42:13;20.90;52.10
56172;DHT22;42052;41.634;-0.946;2024-01-30T06:44:42;20.90;52.10
56172;DHT22;42052;41.634;-0.946;2024-01-30T06:47:09;20.90;53.40
56172;DHT22;42052;41.634;-0.946;2024-01-30T06:49:35;20.80;53.60
56172;DHT22;42052;41.634;-0.946;2024-01-30T06:52:05;20.80;53.80
56172;DHT22;42052;41.634;-0.946;2024-01-30T06:54:31;20.80;53.40
56172;DHT22;42052;41.634;-0.946;2024-01-30T06:56:58;20.80;53.30
56172;DHT22;42052;41.634;-0.946;2024-01-30T06:59:24;20.80;53.40
56172;DHT22;42052;41.634;-0.946;2024-01-30T07:01:51;20.80;53.30
56172;DHT22;42052;41.634;-0.946;2024-01-30T07:04:17;20.90;53.00
56172;DHT22;42052;41.634;-0.946;2024-01-30T07:06:44;20.90;52.70
56172;DHT22;42052;41.634;-0.946;2024-01-30T07:09:12;20.90;52.50
56172;DHT22;42052;41.634;-0.946;2024-01-30T07:11:39;20.90;52.70
56172;DHT22;42052;41.634;-0.946;2024-01-30T07:14:05;20.80;52.60
56172;DHT22;42052;41.634;-0.946;2024-01-30T07:16:32;20.80;52.80
56172;DHT22;42052;41.634;-0.946;2024-01-30T07:18:57;20.80;53.30
56172;DHT22;42052;41.634;-0.946;2024-01-30T07:21:23;20.70;53.10
56172;DHT22;42052;41.634;-0.946;2024-01-30T07:23:54;20.70;53.30
56172;DHT22;42052;41.634;-0.946;2024-01-30T07:26:21;20.70;53.50
56172;DHT22;42052;41.634;-0.946;2024-01-30T07:28:48;20.70;53.10
56172;DHT22;42052;41.634;-0.946;2024-01-30T07:31:14;20.70;53.10
56172;DHT22;42052;41.634;-0.946;2024-01-30T07:33:39;20.70;53.20
56172;DHT22;42052;41.634;-0.946;2024-01-30T07:36:05;20.70;53.10
56172;DHT22;42052;41.634;-0.946;2024-01-30T07:38:32;20.70;53.30
56172;DHT22;42052;41.634;-0.946;2024-01-30T07:40:58;20.70;53.00
56172;DHT22;42052;41.634;-0.946;2024-01-30T07:43:24;20.70;53.00
56172;DHT22;42052;41.634;-0.946;2024-01-30T07:45:50;20.70;53.00
56172;DHT22;42052;41.634;-0.946;2024-01-30T07:48:16;20.60;53.10
56172;DHT22;42052;41.634;-0.946;2024-01-30T07:50:42;20.70;53.00
56172;DHT22;42052;41.634;-0.946;2024-01-30T07:53:07;20.60;52.90
56172;DHT22;42052;41.634;-0.946;2024-01-30T07:55:33;20.60;52.90
56172;DHT22;42052;41.634;-0.946;2024-01-30T07:57:59;20.60;52.70
56172;DHT22;42052;41.634;-0.946;2024-01-30T08:00:26;20.60;52.60
56172;DHT22;42052;41.634;-0.946;2024-01-30T08:02:53;20.60;52.70
56172;DHT22;42052;41.634;-0.946;2024-01-30T08:05:19;20.60;52.60
56172;DHT22;42052;41.634;-0.946;2024-01-30T08:07:48;20.60;52.50
56172;DHT22;42052;41.634;-0.946;2024-01-30T08:10:14;20.60;52.50
56172;DHT22;42052;41.634;-0.946;2024-01-30T08:12:41;20.60;52.40
56172;DHT22;42052;41.634;-0.946;2024-01-30T08:15:07;20.60;52.60
56172;DHT22;42052;41.634;-0.946;2024-01-30T08:17:34;20.60;52.50
56172;DHT22;42052;41.634;-0.946;2024-01-30T08:20:00;20.60;52.40
56172;DHT22;42052;41.634;-0.946;2024-01-30T08:22:26;20.50;52.50
56172;DHT22;42052;41.634;-0.946;2024-01-30T08:24:51;20.60;52.10
56172;DHT22;42052;41.634;-0.946;2024-01-30T08:27:17;20.60;52.10
56172;DHT22;42052;41.634;-0.946;2024-01-30T08:29:43;20.50;52.30
56172;DHT22;42052;41.634;-0.946;2024-01-30T08:32:09;20.50;52.80
56172;DHT22;42052;41.634;-0.946;2024-01-30T08:34:35;20.60;52.50
56172;DHT22;42052;41.634;-0.946;2024-01-30T08:37:01;20.50;52.30
56172;DHT22;42052;41.634;-0.946;2024-01-30T08:39:26;20.50;52.10
56172;DHT22;42052;41.634;-0.946;2024-01-30T08:41:52;20.50;52.10
56172;DHT22;42052;41.634;-0.946;2024-01-30T08:44:19;20.60;52.30
56172;DHT22;42052;41.634;-0.946;2024-01-30T08:46:45;20.60;52.20
56172;DHT22;42052;41.634;-0.946;2024-01-30T08:49:16;20.50;52.20
56172;DHT22;42052;41.634;-0.946;2024-01-30T08:51:42;20.50;52.30
56172;DHT22;42052;41.634;-0.946;2024-01-30T08:54:08;20.50;52.20
56172;DHT22;42052;41.634;-0.946;2024-01-30T08:56:34;20.50;51.90
56172;DHT22;42052;41.634;-0.946;2024-01-30T08:58:59;20.50;52.10
56172;DHT22;42052;41.634;-0.946;2024-01-30T09:01:25;20.50;52.20
56172;DHT22;42052;41.634;-0.946;2024-01-30T09:03:52;20.50;52.00
56172;DHT22;42052;41.634;-0.946;2024-01-30T09:06:18;20.50;52.00
56172;DHT22;42052;41.634;-0.946;2024-01-30T09:08:43;20.50;52.00
56172;DHT22;42052;41.634;-0.946;2024-01-30T09:11:11;20.40;52.00
56172;DHT22;42052;41.634;-0.946;2024-01-30T09:13:37;20.40;51.90
56172;DHT22;42052;41.634;-0.946;2024-01-30T09:16:03;20.40;51.90
56172;DHT22;42052;41.634;-0.946;2024-01-30T09:18:29;20.40;51.90
56172;DHT22;42052;41.634;-0.946;2024-01-30T09:20:55;20.40;51.80
56172;DHT22;42052;41.634;-0.946;2024-01-30T09:23:21;20.40;51.70
56172;DHT22;42052;41.634;-0.946;2024-01-30T09:25:47;20.40;51.80
56172;DHT22;42052;41.634;-0.946;2024-01-30T09:28:14;20.40;51.70
56172;DHT22;42052;41.634;-0.946;2024-01-30T09:30:40;20.40;51.70
56172;DHT22;42052;41.634;-0.946;2024-01-30T09:33:06;20.30;51.60
56172;DHT22;42052;41.634;-0.946;2024-01-30T09:35:32;20.40;51.70
56172;DHT22;42052;41.634;-0.946;2024-01-30T09:38:01;20.40;51.60
56172;DHT22;42052;41.634;-0.946;2024-01-30T09:40:27;20.30;51.50
56172;DHT22;42052;41.634;-0.946;2024-01-30T09:42:54;20.40;51.50
56172;DHT22;42052;41.634;-0.946;2024-01-30T09:45:23;20.30;51.50
56172;DHT22;42052;41.634;-0.946;2024-01-30T09:47:50;20.40;51.50
56172;DHT22;42052;41.634;-0.946;2024-01-30T09:50:16;20.40;51.50
56172;DHT22;42052;41.634;-0.946;2024-01-30T09:52:47;20.30;51.40
56172;DHT22;42052;41.634;-0.946;2024-01-30T09:55:13;20.30;51.40
56172;DHT22;42052;41.634;-0.946;2024-01-30T09:57:41;20.40;51.40
56172;DHT22;42052;41.634;-0.946;2024-01-30T10:00:07;20.30;51.20
56172;DHT22;42052;41.634;-0.946;2024-01-30T10:02:34;20.30;51.30
56172;DHT22;42052;41.634;-0.946;2024-01-30T10:05:01;20.30;51.40
56172;DHT22;42052;41.634;-0.946;2024-01-30T10:07:27;20.30;51.20
56172;DHT22;42052;41.634;-0.946;2024-01-30T10:09:53;20.30;51.20
56172;DHT22;42052;41.634;-0.946;2024-01-30T10:12:22;20.30;51.20
56172;DHT22;42052;41.634;-0.946;2024-01-30T10:14:49;20.30;51.10
56172;DHT22;42052;41.634;-0.946;2024-01-30T10:17:15;20.30;51.20
56172;DHT22;42052;41.634;-0.946;2024-01-30T10:19:41;20.30;51.20
56172;DHT22;42052;41.634;-0.946;2024-01-30T10:22:09;20.30;51.10
56172;DHT22;42052;41.634;-0.946;2024-01-30T10:24:35;20.30;51.10
56172;DHT22;42052;41.634;-0.946;2024-01-30T10:27:01;20.30;51.10
56172;DHT22;42052;41.634;-0.946;2024-01-30T10:29:27;20.20;51.00
56172;DHT22;42052;41.634;-0.946;2024-01-30T10:32:01;20.30;51.10
56172;DHT22;42052;41.634;-0.946;2024-01-30T10:34:28;20.30;51.00
56172;DHT22;42052;41.634;-0.946;2024-01-30T10:37:11;20.20;50.90
56172;DHT22;42052;41.634;-0.946;2024-01-30T10:39:44;20.20;51.00
56172;DHT22;42052;41.634;-0.946;2024-01-30T10:42:19;20.20;51.00
56172;DHT22;42052;41.634;-0.946;2024-01-30T10:45:07;20.20;51.00
56172;DHT22;42052;41.634;-0.946;2024-01-30T10:47:43;20.20;50.90
56172;DHT22;42052;41.634;-0.946;2024-01-30T10:50:09;20.20;51.00
56172;DHT22;42052;41.634;-0.946;2024-01-30T10:52:37;20.20;51.00
56172;DHT22;42052;41.634;-0.946;2024-01-30T10:55:04;20.20;50.90
56172;DHT22;42052;41.634;-0.946;2024-01-30T10:57:37;20.20;51.00
56172;DHT22;42052;41.634;-0.946;2024-01-30T11:00:11;20.20;50.80
56172;DHT22;42052;41.634;-0.946;2024-01-30T11:02:45;20.20;50.80
56172;DHT22;42052;41.634;-0.946;2024-01-30T11:05:11;20.20;50.80
56172;DHT22;42052;41.634;-0.946;2024-01-30T11:07:39;20.20;50.70
56172;DHT22;42052;41.634;-0.946;2024-01-30T11:10:06;20.20;50.70
56172;DHT22;42052;41.634;-0.946;2024-01-30T11:12:39;20.20;50.70
56172;DHT22;42052;41.634;-0.946;2024-01-30T11:15:14;20.20;50.70
56172;DHT22;42052;41.634;-0.946;2024-01-30T11:17:45;20.20;50.70
56172;DHT22;42052;41.634;-0.946;2024-01-30T11:20:14;20.20;50.70
56172;DHT22;42052;41.634;-0.946;2024-01-30T11:22:51;20.20;50.70
56172;DHT22;42052;41.634;-0.946;2024-01-30T11:25:19;20.20;51.50
56172;DHT22;42052;41.634;-0.946;2024-01-30T11:27:47;20.20;50.70
56172;DHT22;42052;41.634;-0.946;2024-01-30T11:30:44;20.10;50.70
56172;DHT22;42052;41.634;-0.946;2024-01-30T11:33:14;20.10;50.60
56172;DHT22;42052;41.634;-0.946;2024-01-30T11:35:44;20.20;50.60
56172;DHT22;42052;41.634;-0.946;2024-01-30T11:38:14;20.20;50.60
56172;DHT22;42052;41.634;-0.946;2024-01-30T11:40:40;20.10;50.60
56172;DHT22;42052;41.634;-0.946;2024-01-30T11:43:08;20.20;50.70
56172;DHT22;42052;41.634;-0.946;2024-01-30T11:45:35;20.10;50.70
56172;DHT22;42052;41.634;-0.946;2024-01-30T11:48:02;20.10;50.70
56172;DHT22;42052;41.634;-0.946;2024-01-30T11:50:34;20.10;50.50
56172;DHT22;42052;41.634;-0.946;2024-01-30T11:53:04;20.10;50.60
56172;DHT22;42052;41.634;-0.946;2024-01-30T11:55:30;20.10;50.60
56172;DHT22;42052;41.634;-0.946;2024-01-30T11:58:00;20.10;50.50
56172;DHT22;42052;41.634;-0.946;2024-01-30T12:00:26;20.10;50.50
56172;DHT22;42052;41.634;-0.946;2024-01-30T12:02:55;20.10;50.50
56172;DHT22;42052;41.634;-0.946;2024-01-30T12:05:25;20.10;50.60
56172;DHT22;42052;41.634;-0.946;2024-01-30T12:07:51;20.10;50.50
56172;DHT22;42052;41.634;-0.946;2024-01-30T12:10:17;20.10;50.50
56172;DHT22;42052;41.634;-0.946;2024-01-30T12:12:47;20.10;50.40
56172;DHT22;42052;41.634;-0.946;2024-01-30T12:15:14;20.10;50.40
56172;DHT22;42052;41.634;-0.946;2024-01-30T12:17:41;20.10;50.40
56172;DHT22;42052;41.634;-0.946;2024-01-30T12:22:43;20.10;50.40
56172;DHT22;42052;41.634;-0.946;2024-01-30T12:25:11;20.10;50.40
56172;DHT22;42052;41.634;-0.946;2024-01-30T12:27:37;20.10;50.40
56172;DHT22;42052;41.634;-0.946;2024-01-30T12:30:07;20.00;50.40
56172;DHT22;42052;41.634;-0.946;2024-01-30T12:32:43;20.00;50.40
56172;DHT22;42052;41.634;-0.946;2024-01-30T12:35:12;20.00;50.30
56172;DHT22;42052;41.634;-0.946;2024-01-30T12:37:39;20.00;50.30
56172;DHT22;42052;41.634;-0.946;2024-01-30T12:40:06;20.10;50.40
56172;DHT22;42052;41.634;-0.946;2024-01-30T12:42:33;20.10;50.40
56172;DHT22;42052;41.634;-0.946;2024-01-30T12:44:59;20.00;50.30
56172;DHT22;42052;41.634;-0.946;2024-01-30T12:47:25;20.00;50.30
56172;DHT22;42052;41.634;-0.946;2024-01-30T12:49:52;20.00;50.30
56172;DHT22;42052;41.634;-0.946;2024-01-30T12:52:19;20.00;50.30
56172;DHT22;42052;41.634;-0.946;2024-01-30T12:54:51;20.10;50.30
56172;DHT22;42052;41.634;-0.946;2024-01-30T12:57:17;20.00;50.20
56172;DHT22;42052;41.634;-0.946;2024-01-30T12:59:44;20.00;50.30
56172;DHT22;42052;41.634;-0.946;2024-01-30T13:02:11;20.00;50.30
56172;DHT22;42052;41.634;-0.946;2024-01-30T13:04:37;20.00;50.20
56172;DHT22;42052;41.634;-0.946;2024-01-30T13:07:03;20.00;50.10
56172;DHT22;42052;41.634;-0.946;2024-01-30T13:09:30;20.00;50.10
56172;DHT22;42052;41.634;-0.946;2024-01-30T13:11:58;20.00;50.10
56172;DHT22;42052;41.634;-0.946;2024-01-30T13:14:26;20.00;50.10
56172;DHT22;42052;41.634;-0.946;2024-01-30T13:16:52;20.00;50.20
56172;DHT22;42052;41.634;-0.946;2024-01-30T13:19:18;20.00;50.10
56172;DHT22;42052;41.634;-0.946;2024-01-30T13:21:44;20.00;50.10
56172;DHT22;42052;41.634;-0.946;2024-01-30T13:24:09;20.00;50.00
56172;DHT22;42052;41.634;-0.946;2024-01-30T13:26:36;20.00;50.10
56172;DHT22;42052;41.634;-0.946;2024-01-30T13:29:02;20.00;50.10
56172;DHT22;42052;41.634;-0.946;2024-01-30T13:31:28;20.00;50.10
56172;DHT22;42052;41.634;-0.946;2024-01-30T13:33:54;20.00;50.10
56172;DHT22;42052;41.634;-0.946;2024-01-30T13:36:21;20.00;50.10
56172;DHT22;42052;41.634;-0.946;2024-01-30T13:38:47;20.00;50.00
56172;DHT22;42052;41.634;-0.946;2024-01-30T13:41:13;20.00;50.00
56172;DHT22;42052;41.634;-0.946;2024-01-30T13:43:38;20.00;50.10
56172;DHT22;42052;41.634;-0.946;2024-01-30T13:46:04;20.00;50.00
56172;DHT22;42052;41.634;-0.946;2024-01-30T13:48:31;20.00;50.00
56172;DHT22;42052;41.634;-0.946;2024-01-30T13:50:57;20.00;50.00
56172;DHT22;42052;41.634;-0.946;2024-01-30T13:53:23;20.00;50.10
56172;DHT22;42052;41.634;-0.946;2024-01-30T13:55:49;20.00;50.10
56172;DHT22;42052;41.634;-0.946;2024-01-30T13:58:15;20.00;50.00
56172;DHT22;42052;41.634;-0.946;2024-01-30T14:00:40;20.00;50.10
56172;DHT22;42052;41.634;-0.946;2024-01-30T14:03:07;20.00;50.00
56172;DHT22;42052;41.634;-0.946;2024-01-30T14:05:32;20.00;50.00
56172;DHT22;42052;41.634;-0.946;2024-01-30T14:08:00;20.00;50.00
56172;DHT22;42052;41.634;-0.946;2024-01-30T14:10:25;20.00;50.00
56172;DHT22;42052;41.634;-0.946;2024-01-30T14:12:51;20.00;50.00
56172;DHT22;42052;41.634;-0.946;2024-01-30T14:15:17;19.90;50.00
56172;DHT22;42052;41.634;-0.946;2024-01-30T14:17:44;20.00;50.00
56172;DHT22;42052;41.634;-0.946;2024-01-30T14:20:11;19.90;49.90
56172;DHT22;42052;41.634;-0.946;2024-01-30T14:22:37;20.00;50.00
56172;DHT22;42052;41.634;-0.946;2024-01-30T14:25:03;19.90;50.00
56172;DHT22;42052;41.634;-0.946;2024-01-30T14:27:32;19.90;50.00
56172;DHT22;42052;41.634;-0.946;2024-01-30T14:29:58;19.90;50.00
56172;DHT22;42052;41.634;-0.946;2024-01-30T14:32:24;19.90;49.90
56172;DHT22;42052;41.634;-0.946;2024-01-30T14:34:51;19.90;50.00
56172;DHT22;42052;41.634;-0.946;2024-01-30T14:37:21;20.00;50.00
56172;DHT22;42052;41.634;-0.946;2024-01-30T14:39:47;19.90;49.90
56172;DHT22;42052;41.634;-0.946;2024-01-30T14:42:14;19.90;49.90
56172;DHT22;42052;41.634;-0.946;2024-01-30T14:44:40;20.00;49.90
56172;DHT22;42052;41.634;-0.946;2024-01-30T14:47:06;19.90;49.80
56172;DHT22;42052;41.634;-0.946;2024-01-30T14:49:32;19.90;49.80
56172;DHT22;42052;41.634;-0.946;2024-01-30T14:51:58;19.90;49.80
56172;DHT22;42052;41.634;-0.946;2024-01-30T14:54:24;19.90;49.90
56172;DHT22;42052;41.634;-0.946;2024-01-30T14:56:51;19.90;49.80
56172;DHT22;42052;41.634;-0.946;2024-01-30T14:59:17;19.90;49.90
56172;DHT22;42052;41.634;-0.946;2024-01-30T15:01:43;19.90;49.90
56172;DHT22;42052;41.634;-0.946;2024-01-30T15:04:10;19.90;49.80
56172;DHT22;42052;41.634;-0.946;2024-01-30T15:06:37;19.90;49.80
56172;DHT22;42052;41.634;-0.946;2024-01-30T15:09:03;19.90;49.80
56172;DHT22;42052;41.634;-0.946;2024-01-30T15:11:28;19.90;49.80
56172;DHT22;42052;41.634;-0.946;2024-01-30T15:13:54;19.90;49.90
56172;DHT22;42052;41.634;-0.946;2024-01-30T15:16:20;19.90;49.80